sensor_id;sensor_type;location;lat;lon;timestamp;pressure;altitude;pressure_sealevel;temperature;humidity
17615;BME280;8926;49.720;6.576;2023-02-12T00:02:22;101883.28;;;6.49;83.75
17615;BME280;8926;49.720;6.576;2023-02-12T00:04:47;101873.72;;;6.51;83.75
17615;BME280;8926;49.720;6.576;2023-02-12T00:07:13;101877.19;;;6.50;84.04
17615;BME280;8926;49.720;6.576;2023-02-12T00:09:38;101873.72;;;6.51;83.79
17615;BME280;8926;49.720;6.576;2023-02-12T00:12:03;101863.38;;;6.48;84.72
17615;BME280;8926;49.720;6.576;2023-02-12T00:14:29;101866.84;;;6.47;84.55
17615;BME280;8926;49.720;6.576;2023-02-12T00:16:54;101866.84;;;6.47;84.65
17615;BME280;8926;49.720;6.576;2023-02-12T00:19:19;101856.47;;;6.45;85.18
17615;BME280;8926;49.720;6.576;2023-02-12T00:21:45;101854.72;;;6.47;84.66
17615;BME280;8926;49.720;6.576;2023-02-12T00:24:10;101852.13;;;6.47;84.70
17615;BME280;8926;49.720;6.576;2023-02-12T00:26:35;101859.03;;;6.49;84.67
17615;BME280;8926;49.720;6.576;2023-02-12T00:29:01;101849.53;;;6.49;84.32
17615;BME280;8926;49.720;6.576;2023-02-12T00:31:28;101847.78;;;6.48;84.23
17615;BME280;8926;49.720;6.576;2023-02-12T00:33:54;101854.72;;;6.46;84.46
17615;BME280;8926;49.720;6.576;2023-02-12T00:36:22;101854.72;;;6.47;84.02
17615;BME280;8926;49.720;6.576;2023-02-12T00:38:49;101848.63;;;6.50;84.49
17615;BME280;8926;49.720;6.576;2023-02-12T00:41:14;101857.28;;;6.51;84.55
17615;BME280;8926;49.720;6.576;2023-02-12T00:43:40;101852.94;;;6.51;84.67
17615;BME280;8926;49.720;6.576;2023-02-12T00:46:05;101855.53;;;6.51;84.48
17615;BME280;8926;49.720;6.576;2023-02-12T00:48:32;101846.03;;;6.50;84.36
17615;BME280;8926;49.720;6.576;2023-02-12T00:50:57;101853.00;;;6.48;84.94
17615;BME280;8926;49.720;6.576;2023-02-12T00:53:23;101865.13;;;6.46;84.52
17615;BME280;8926;49.720;6.576;2023-02-12T00:55:48;101859.94;;;6.43;84.59
17615;BME280;8926;49.720;6.576;2023-02-12T00:58:13;101860.81;;;6.40;84.58
17615;BME280;8926;49.720;6.576;2023-02-12T01:00:41;101859.94;;;6.40;84.99
17615;BME280;8926;49.720;6.576;2023-02-12T01:03:06;101859.06;;;6.42;84.65
17615;BME280;8926;49.720;6.576;2023-02-12T01:05:32;101859.09;;;6.39;84.92
17615;BME280;8926;49.720;6.576;2023-02-12T01:07:57;101866.00;;;6.42;85.38
17615;BME280;8926;49.720;6.576;2023-02-12T01:10:23;101867.72;;;6.41;85.00
17615;BME280;8926;49.720;6.576;2023-02-12T01:12:48;101872.03;;;6.44;84.76
17615;BME280;8926;49.720;6.576;2023-02-12T01:15:15;101867.72;;;6.46;84.80
17615;BME280;8926;49.720;6.576;2023-02-12T01:17:41;101872.91;;;6.46;85.02
17615;BME280;8926;49.720;6.576;2023-02-12T01:20:10;101868.56;;;6.48;84.83
17615;BME280;8926;49.720;6.576;2023-02-12T01:22:36;101876.31;;;6.51;84.36
17615;BME280;8926;49.720;6.576;2023-02-12T01:25:03;101866.78;;;6.50;84.64
17615;BME280;8926;49.720;6.576;2023-02-12T01:27:29;101870.25;;;6.51;84.46
17615;BME280;8926;49.720;6.576;2023-02-12T01:29:54;101869.44;;;6.49;84.70
17615;BME280;8926;49.720;6.576;2023-02-12T01:32:20;101868.56;;;6.48;84.62
17615;BME280;8926;49.720;6.576;2023-02-12T01:34:45;101860.78;;;6.46;84.67
17615;BME280;8926;49.720;6.576;2023-02-12T01:37:10;101866.84;;;6.47;85.25
17615;BME280;8926;49.720;6.576;2023-02-12T01:39:36;101866.84;;;6.47;85.07
17615;BME280;8926;49.720;6.576;2023-02-12T01:42:02;101868.59;;;6.43;84.85
17615;BME280;8926;49.720;6.576;2023-02-12T01:44:29;101870.31;;;6.43;85.27
17615;BME280;8926;49.720;6.576;2023-02-12T01:47:00;101859.06;;;6.42;84.98
17615;BME280;8926;49.720;6.576;2023-02-12T01:49:36;101863.38;;;6.45;84.88
17615;BME280;8926;49.720;6.576;2023-02-12T01:52:12;101863.38;;;6.46;85.09
17615;BME280;8926;49.720;6.576;2023-02-12T01:54:38;101865.97;;;6.48;84.78
17615;BME280;8926;49.720;6.576;2023-02-12T01:57:05;101859.91;;;6.49;84.74
17615;BME280;8926;49.720;6.576;2023-02-12T01:59:33;101861.66;;;6.47;84.69
17615;BME280;8926;49.720;6.576;2023-02-12T02:01:59;101866.84;;;6.44;84.91
17615;BME280;8926;49.720;6.576;2023-02-12T02:04:32;101859.94;;;6.41;84.93
17615;BME280;8926;49.720;6.576;2023-02-12T02:07:02;101851.28;;;6.41;85.08
17615;BME280;8926;49.720;6.576;2023-02-12T02:09:30;101858.19;;;6.45;84.91
17615;BME280;8926;49.720;6.576;2023-02-12T02:11:57;101860.81;;;6.42;85.05
17615;BME280;8926;49.720;6.576;2023-02-12T02:14:41;101860.81;;;6.37;85.28
17615;BME280;8926;49.720;6.576;2023-02-12T02:17:23;101860.81;;;6.37;85.17
17615;BME280;8926;49.720;6.576;2023-02-12T02:33:26;101846.97;;;6.40;85.15
17615;BME280;8926;49.720;6.576;2023-02-12T02:39:16;101832.25;;;6.42;84.89
17615;BME280;8926;49.720;6.576;2023-02-12T02:41:48;101844.34;;;6.43;85.19
17615;BME280;8926;49.720;6.576;2023-02-12T02:44:23;101835.72;;;6.41;85.53
17615;BME280;8926;49.720;6.576;2023-02-12T02:46:52;101827.06;;;6.42;85.35
17615;BME280;8926;49.720;6.576;2023-02-12T02:49:23;101834.84;;;6.40;85.21
17615;BME280;8926;49.720;6.576;2023-02-12T02:51:53;101834.84;;;6.40;85.63
17615;BME280;8926;49.720;6.576;2023-02-12T02:54:40;101832.25;;;6.42;85.38
17615;BME280;8926;49.720;6.576;2023-02-12T02:57:13;101829.66;;;6.42;85.40
17615;BME280;8926;49.720;6.576;2023-02-12T02:59:44;101829.66;;;6.40;85.01
17615;BME280;8926;49.720;6.576;2023-02-12T03:02:18;101830.53;;;6.38;85.42
17615;BME280;8926;49.720;6.576;2023-02-12T03:04:51;101828.81;;;6.37;85.59
17615;BME280;8926;49.720;6.576;2023-02-12T03:07:24;101837.47;;;6.39;85.34
17615;BME280;8926;49.720;6.576;2023-02-12T03:12:25;101830.53;;;6.41;85.07
17615;BME280;8926;49.720;6.576;2023-02-12T03:15:00;101837.47;;;6.39;85.44
17615;BME280;8926;49.720;6.576;2023-02-12T03:17:31;101830.53;;;6.41;85.28
17615;BME280;8926;49.720;6.576;2023-02-12T03:20:12;101828.78;;;6.43;84.95
17615;BME280;8926;49.720;6.576;2023-02-12T03:22:45;101831.38;;;6.43;84.84
17615;BME280;8926;49.720;6.576;2023-02-12T03:25:15;101830.53;;;6.41;84.96
17615;BME280;8926;49.720;6.576;2023-02-12T03:27:57;101827.06;;;6.42;85.02
17615;BME280;8926;49.720;6.576;2023-02-12T03:30:31;101832.25;;;6.43;84.98
17615;BME280;8926;49.720;6.576;2023-02-12T03:33:28;101831.38;;;6.44;84.68
17615;BME280;8926;49.720;6.576;2023-02-12T03:38:45;101825.34;;;6.41;84.99
17615;BME280;8926;49.720;6.576;2023-02-12T03:41:19;101827.06;;;6.42;84.95
17615;BME280;8926;49.720;6.576;2023-02-12T03:43:49;101838.31;;;6.42;84.67
17615;BME280;8926;49.720;6.576;2023-02-12T03:46:26;101827.94;;;6.39;84.93
17615;BME280;8926;49.720;6.576;2023-02-12T03:51:38;101832.28;;;6.33;85.25
17615;BME280;8926;49.720;6.576;2023-02-12T03:54:06;101822.78;;;6.33;85.46
17615;BME280;8926;49.720;6.576;2023-02-12T03:56:52;101827.06;;;6.39;84.39
17615;BME280;8926;49.720;6.576;2023-02-12T03:59:21;101825.34;;;6.38;84.21
17615;BME280;8926;49.720;6.576;2023-02-12T04:01:48;101823.63;;;6.34;83.95
17615;BME280;8926;49.720;6.576;2023-02-12T04:04:14;101820.19;;;6.32;84.61
17615;BME280;8926;49.720;6.576;2023-02-12T04:06:41;101815.00;;;6.29;84.50
17615;BME280;8926;49.720;6.576;2023-02-12T04:09:08;101821.94;;;6.27;83.94
17615;BME280;8926;49.720;6.576;2023-02-12T04:16:49;101830.59;;;6.26;84.66
17615;BME280;8926;49.720;6.576;2023-02-12T04:19:23;101833.19;;;6.27;85.27
17615;BME280;8926;49.720;6.576;2023-02-12T04:22:30;101836.63;;;6.28;85.30
17615;BME280;8926;49.720;6.576;2023-02-12T04:25:00;101835.78;;;6.29;85.00
17615;BME280;8926;49.720;6.576;2023-02-12T04:27:34;101831.44;;;6.28;85.51
17615;BME280;8926;49.720;6.576;2023-02-12T04:30:06;101832.31;;;6.30;85.41
17615;BME280;8926;49.720;6.576;2023-02-12T04:32:43;101830.59;;;6.29;85.31
17615;BME280;8926;49.720;6.576;2023-02-12T04:38:04;101842.69;;;6.30;85.35
17615;BME280;8926;49.720;6.576;2023-02-12T04:40:33;101847.91;;;6.27;85.59
17615;BME280;8926;49.720;6.576;2023-02-12T04:42:59;101842.69;;;6.27;85.83
17615;BME280;8926;49.720;6.576;2023-02-12T04:45:30;101842.69;;;6.30;85.80
17615;BME280;8926;49.720;6.576;2023-02-12T04:47:57;101840.97;;;6.29;85.72
17615;BME280;8926;49.720;6.576;2023-02-12T04:50:22;101833.19;;;6.27;85.64
17615;BME280;8926;49.720;6.576;2023-02-12T04:52:48;101838.38;;;6.29;85.66
17615;BME280;8926;49.720;6.576;2023-02-12T04:55:13;101831.44;;;6.31;85.58
17615;BME280;8926;49.720;6.576;2023-02-12T04:57:39;101837.50;;;6.30;85.44
17615;BME280;8926;49.720;6.576;2023-02-12T05:00:06;101835.75;;;6.32;85.26
17615;BME280;8926;49.720;6.576;2023-02-12T05:02:34;101835.75;;;6.32;85.93
17615;BME280;8926;49.720;6.576;2023-02-12T05:05:00;101835.75;;;6.32;85.59
17615;BME280;8926;49.720;6.576;2023-02-12T05:07:25;101835.75;;;6.32;85.53
17615;BME280;8926;49.720;6.576;2023-02-12T05:09:51;101832.31;;;6.30;85.74
17615;BME280;8926;49.720;6.576;2023-02-12T05:12:16;101834.03;;;6.31;85.60
17615;BME280;8926;49.720;6.576;2023-02-12T05:14:41;101822.78;;;6.30;85.69
17615;BME280;8926;49.720;6.576;2023-02-12T05:17:06;101823.66;;;6.31;85.68
17615;BME280;8926;49.720;6.576;2023-02-12T05:19:32;101823.66;;;6.31;85.81
17615;BME280;8926;49.720;6.576;2023-02-12T05:21:57;101828.84;;;6.31;85.48
17615;BME280;8926;49.720;6.576;2023-02-12T05:24:23;101828.84;;;6.31;85.66
17615;BME280;8926;49.720;6.576;2023-02-12T05:26:48;101832.28;;;6.33;85.31
17615;BME280;8926;49.720;6.576;2023-02-12T05:29:14;101830.56;;;6.32;85.62
17615;BME280;8926;49.720;6.576;2023-02-12T05:31:39;101834.03;;;6.34;85.89
17615;BME280;8926;49.720;6.576;2023-02-12T05:34:07;101830.53;;;6.38;85.25
17615;BME280;8926;49.720;6.576;2023-02-12T05:36:33;101832.28;;;6.33;85.38
17615;BME280;8926;49.720;6.576;2023-02-12T05:38:59;101835.75;;;6.35;85.39
17615;BME280;8926;49.720;6.576;2023-02-12T05:41:24;101835.75;;;6.35;85.98
17615;BME280;8926;49.720;6.576;2023-02-12T05:43:50;101840.94;;;6.35;85.18
17615;BME280;8926;49.720;6.576;2023-02-12T05:46:17;101842.66;;;6.36;85.50
17615;BME280;8926;49.720;6.576;2023-02-12T05:48:43;101851.31;;;6.38;85.23
17615;BME280;8926;49.720;6.576;2023-02-12T05:51:11;101848.69;;;6.41;84.99
17615;BME280;8926;49.720;6.576;2023-02-12T05:53:38;101849.56;;;6.40;85.79
17615;BME280;8926;49.720;6.576;2023-02-12T05:56:15;101853.88;;;6.42;83.99
17615;BME280;8926;49.720;6.576;2023-02-12T05:58:44;101849.56;;;6.40;84.24
17615;BME280;8926;49.720;6.576;2023-02-12T06:01:23;101860.84;;;6.36;84.78
17615;BME280;8926;49.720;6.576;2023-02-12T06:03:49;101859.13;;;6.33;84.45
17615;BME280;8926;49.720;6.576;2023-02-12T06:06:14;101852.19;;;6.32;85.53
17615;BME280;8926;49.720;6.576;2023-02-12T06:08:39;101851.34;;;6.32;85.11
17615;BME280;8926;49.720;6.576;2023-02-12T06:11:07;101865.19;;;6.31;85.13
17615;BME280;8926;49.720;6.576;2023-02-12T06:13:33;101854.78;;;6.31;85.00
17615;BME280;8926;49.720;6.576;2023-02-12T06:15:59;101866.91;;;6.32;85.41
17615;BME280;8926;49.720;6.576;2023-02-12T06:18:25;101863.44;;;6.30;85.41
17615;BME280;8926;49.720;6.576;2023-02-12T06:20:51;101853.94;;;6.30;85.46
17615;BME280;8926;49.720;6.576;2023-02-12T06:23:19;101858.25;;;6.30;85.89
17615;BME280;8926;49.720;6.576;2023-02-12T06:25:45;101865.19;;;6.31;86.01
17615;BME280;8926;49.720;6.576;2023-02-12T06:28:10;101868.63;;;6.33;84.90
17615;BME280;8926;49.720;6.576;2023-02-12T06:30:35;101868.63;;;6.33;85.25
17615;BME280;8926;49.720;6.576;2023-02-12T06:33:01;101868.63;;;6.36;84.54
17615;BME280;8926;49.720;6.576;2023-02-12T06:35:27;101864.31;;;6.29;85.03
17615;BME280;8926;49.720;6.576;2023-02-12T06:37:52;101862.59;;;6.26;84.60
17615;BME280;8926;49.720;6.576;2023-02-12T06:40:18;101872.13;;;6.24;85.38
17615;BME280;8926;49.720;6.576;2023-02-12T06:42:43;101858.28;;;6.27;84.88
17615;BME280;8926;49.720;6.576;2023-02-12T06:45:09;101865.19;;;6.28;84.71
17615;BME280;8926;49.720;6.576;2023-02-12T06:47:34;101866.06;;;6.27;85.11
17615;BME280;8926;49.720;6.576;2023-02-12T06:49:59;101860.88;;;6.25;85.83
17615;BME280;8926;49.720;6.576;2023-02-12T06:52:26;101869.53;;;6.27;85.63
17615;BME280;8926;49.720;6.576;2023-02-12T06:54:51;101875.56;;;6.28;86.38
17615;BME280;8926;49.720;6.576;2023-02-12T06:57:17;101868.66;;;6.30;85.98
17615;BME280;8926;49.720;6.576;2023-02-12T06:59:42;101864.31;;;6.30;86.02
17615;BME280;8926;49.720;6.576;2023-02-12T07:02:09;101877.28;;;6.32;86.21
17615;BME280;8926;49.720;6.576;2023-02-12T07:04:37;101873.81;;;6.36;85.58
17615;BME280;8926;49.720;6.576;2023-02-12T07:07:03;101875.53;;;6.34;86.01
17615;BME280;8926;49.720;6.576;2023-02-12T07:09:28;101872.09;;;6.35;85.64
17615;BME280;8926;49.720;6.576;2023-02-12T07:11:54;101870.34;;;6.37;85.86
17615;BME280;8926;49.720;6.576;2023-02-12T07:14:20;101872.06;;;6.41;86.37
17615;BME280;8926;49.720;6.576;2023-02-12T07:16:46;101879.84;;;6.44;85.36
17615;BME280;8926;49.720;6.576;2023-02-12T07:19:12;101883.28;;;6.47;85.29
17615;BME280;8926;49.720;6.576;2023-02-12T07:21:37;101872.03;;;6.44;85.61
17615;BME280;8926;49.720;6.576;2023-02-12T07:24:03;101873.78;;;6.45;85.26
17615;BME280;8926;49.720;6.576;2023-02-12T07:26:28;101884.16;;;6.42;85.68
17615;BME280;8926;49.720;6.576;2023-02-12T07:28:55;101885.03;;;6.42;85.61
17615;BME280;8926;49.720;6.576;2023-02-12T07:31:22;101876.34;;;6.48;85.06
17615;BME280;8926;49.720;6.576;2023-02-12T07:33:51;101873.75;;;6.48;85.24
17615;BME280;8926;49.720;6.576;2023-02-12T07:36:18;101871.97;;;6.50;85.13
17615;BME280;8926;49.720;6.576;2023-02-12T07:38:43;101871.97;;;6.50;85.32
17615;BME280;8926;49.720;6.576;2023-02-12T07:41:19;101885.88;;;6.49;84.35
17615;BME280;8926;49.720;6.576;2023-02-12T07:43:45;101882.41;;;6.47;84.79
17615;BME280;8926;49.720;6.576;2023-02-12T07:46:17;101878.97;;;6.46;84.93
17615;BME280;8926;49.720;6.576;2023-02-12T07:48:44;101880.69;;;6.47;85.49
17615;BME280;8926;49.720;6.576;2023-02-12T07:51:11;101876.34;;;6.50;85.38
17615;BME280;8926;49.720;6.576;2023-02-12T07:53:37;101880.63;;;6.52;84.99
17615;BME280;8926;49.720;6.576;2023-02-12T07:56:11;101888.41;;;6.52;85.32
17615;BME280;8926;49.720;6.576;2023-02-12T07:58:38;101885.78;;;6.58;84.85
17615;BME280;8926;49.720;6.576;2023-02-12T08:01:35;101888.38;;;6.61;84.93
17615;BME280;8926;49.720;6.576;2023-02-12T08:04:03;101887.50;;;6.62;85.09
17615;BME280;8926;49.720;6.576;2023-02-12T08:06:31;101885.78;;;6.61;85.31
17615;BME280;8926;49.720;6.576;2023-02-12T08:08:59;101889.22;;;6.63;85.39
17615;BME280;8926;49.720;6.576;2023-02-12T08:11:26;101885.75;;;6.67;85.41
17615;BME280;8926;49.720;6.576;2023-02-12T08:13:51;101889.19;;;6.69;85.70
17615;BME280;8926;49.720;6.576;2023-02-12T08:16:20;101895.25;;;6.74;85.43
17615;BME280;8926;49.720;6.576;2023-02-12T08:18:46;101889.13;;;6.78;85.13
17615;BME280;8926;49.720;6.576;2023-02-12T08:21:17;101883.88;;;6.85;85.09
17615;BME280;8926;49.720;6.576;2023-02-12T08:23:43;101878.69;;;6.88;84.52
17615;BME280;8926;49.720;6.576;2023-02-12T08:26:10;101887.31;;;6.90;84.45
17615;BME280;8926;49.720;6.576;2023-02-12T08:28:37;101876.03;;;6.94;84.31
17615;BME280;8926;49.720;6.576;2023-02-12T08:31:06;101887.28;;;6.96;84.88
17615;BME280;8926;49.720;6.576;2023-02-12T08:33:32;101882.94;;;6.98;84.29
17615;BME280;8926;49.720;6.576;2023-02-12T08:36:12;101890.69;;;7.02;84.13
17615;BME280;8926;49.720;6.576;2023-02-12T08:38:43;101888.06;;;7.04;84.15
17615;BME280;8926;49.720;6.576;2023-02-12T08:41:12;101887.19;;;7.05;83.95
17615;BME280;8926;49.720;6.576;2023-02-12T08:43:39;101888.88;;;7.10;83.36
17615;BME280;8926;49.720;6.576;2023-02-12T08:46:16;101881.94;;;7.11;83.49
17615;BME280;8926;49.720;6.576;2023-02-12T08:48:42;101884.53;;;7.14;83.60
17615;BME280;8926;49.720;6.576;2023-02-12T08:51:10;101881.03;;;7.20;83.93
17615;BME280;8926;49.720;6.576;2023-02-12T08:53:37;101883.56;;;7.27;83.24
17615;BME280;8926;49.720;6.576;2023-02-12T08:56:04;101886.16;;;7.27;83.73
17615;BME280;8926;49.720;6.576;2023-02-12T08:58:29;101885.22;;;7.34;83.56
17615;BME280;8926;49.720;6.576;2023-02-12T09:00:55;101888.66;;;7.39;83.69
17615;BME280;8926;49.720;6.576;2023-02-12T09:03:20;101883.41;;;7.42;83.37
17615;BME280;8926;49.720;6.576;2023-02-12T09:05:46;101879.03;;;7.47;82.87
17615;BME280;8926;49.720;6.576;2023-02-12T09:08:11;101879.00;;;7.52;82.76
17615;BME280;8926;49.720;6.576;2023-02-12T09:10:43;101881.50;;;7.60;82.88
17615;BME280;8926;49.720;6.576;2023-02-12T09:13:10;101881.47;;;7.63;82.41
17615;BME280;8926;49.720;6.576;2023-02-12T09:15:42;101881.41;;;7.69;82.02
17615;BME280;8926;49.720;6.576;2023-02-12T09:18:10;101881.38;;;7.72;82.22
17615;BME280;8926;49.720;6.576;2023-02-12T09:20:40;101874.41;;;7.77;81.69
17615;BME280;8926;49.720;6.576;2023-02-12T09:23:07;101877.72;;;7.88;81.44
17615;BME280;8926;49.720;6.576;2023-02-12T09:25:33;101879.44;;;7.89;81.42
17615;BME280;8926;49.720;6.576;2023-02-12T09:28:00;101878.53;;;7.93;81.40
17615;BME280;8926;49.720;6.576;2023-02-12T09:30:26;101881.13;;;7.95;81.36
17615;BME280;8926;49.720;6.576;2023-02-12T09:32:51;101877.59;;;8.00;81.10
17615;BME280;8926;49.720;6.576;2023-02-12T09:35:16;101881.97;;;7.97;80.73
17615;BME280;8926;49.720;6.576;2023-02-12T09:37:43;101878.50;;;7.98;81.03
17615;BME280;8926;49.720;6.576;2023-02-12T09:40:20;101881.03;;;8.02;81.29
17615;BME280;8926;49.720;6.576;2023-02-12T09:45:34;101878.22;;;8.19;80.79
17615;BME280;8926;49.720;6.576;2023-02-12T09:50:47;101866.84;;;8.28;80.54
17615;BME280;8926;49.720;6.576;2023-02-12T09:53:18;101866.72;;;8.37;80.40
17615;BME280;8926;49.720;6.576;2023-02-12T09:55:45;101856.34;;;8.34;79.82
17615;BME280;8926;49.720;6.576;2023-02-12T09:58:21;101868.38;;;8.44;80.31
17615;BME280;8926;49.720;6.576;2023-02-12T10:00:48;101869.06;;;8.57;79.42
17615;BME280;8926;49.720;6.576;2023-02-12T10:03:15;101864.66;;;8.60;79.64
17615;BME280;8926;49.720;6.576;2023-02-12T10:06:02;101866.28;;;8.69;79.53
17615;BME280;8926;49.720;6.576;2023-02-12T10:08:56;101861.94;;;8.68;78.99
17615;BME280;8926;49.720;6.576;2023-02-12T10:23:10;101846.75;;;8.96;78.15
17615;BME280;8926;49.720;6.576;2023-02-12T10:25:46;101858.03;;;8.96;77.97
17615;BME280;8926;49.720;6.576;2023-02-12T10:28:24;101851.84;;;9.03;77.90
17615;BME280;8926;49.720;6.576;2023-02-12T10:30:54;101856.16;;;9.04;77.80
17615;BME280;8926;49.720;6.576;2023-02-12T10:38:34;101848.38;;;9.03;77.95
17615;BME280;8926;49.720;6.576;2023-02-12T10:41:02;101852.72;;;9.02;78.18
17615;BME280;8926;49.720;6.576;2023-02-12T10:43:28;101849.16;;;9.08;78.60
17615;BME280;8926;49.720;6.576;2023-02-12T10:45:53;101844.66;;;9.16;78.25
17615;BME280;8926;49.720;6.576;2023-02-12T10:48:21;101854.06;;;9.25;77.96
17615;BME280;8926;49.720;6.576;2023-02-12T10:53:55;101839.00;;;9.40;77.74
17615;BME280;8926;49.720;6.576;2023-02-12T10:56:21;101840.56;;;9.50;77.36
17615;BME280;8926;49.720;6.576;2023-02-12T11:01:35;101826.25;;;9.70;76.74
17615;BME280;8926;49.720;6.576;2023-02-12T11:04:25;101829.66;;;9.75;76.80
17615;BME280;8926;49.720;6.576;2023-02-12T11:07:01;101827.88;;;9.77;76.42
17615;BME280;8926;49.720;6.576;2023-02-12T11:09:30;101833.09;;;9.77;76.52
17615;BME280;8926;49.720;6.576;2023-02-12T11:11:56;101826.06;;;9.80;77.05
17615;BME280;8926;49.720;6.576;2023-02-12T11:14:22;101824.19;;;9.87;76.50
17615;BME280;8926;49.720;6.576;2023-02-12T11:16:57;101815.38;;;9.91;76.05
17615;BME280;8926;49.720;6.576;2023-02-12T11:19:24;101821.31;;;9.99;76.20
17615;BME280;8926;49.720;6.576;2023-02-12T11:21:50;101818.81;;;9.93;76.04
17615;BME280;8926;49.720;6.576;2023-02-12T11:24:34;101818.81;;;9.93;76.26
17615;BME280;8926;49.720;6.576;2023-02-12T11:29:39;101810.22;;;9.88;75.78
17615;BME280;8926;49.720;6.576;2023-02-12T11:32:07;101811.25;;;9.81;75.73
17615;BME280;8926;49.720;6.576;2023-02-12T11:34:33;101810.38;;;9.82;76.09
17615;BME280;8926;49.720;6.576;2023-02-12T11:36:59;101806.00;;;9.82;76.07
17615;BME280;8926;49.720;6.576;2023-02-12T11:39:31;101799.88;;;9.85;76.12
17615;BME280;8926;49.720;6.576;2023-02-12T11:42:02;101805.84;;;9.88;76.20
17615;BME280;8926;49.720;6.576;2023-02-12T11:44:32;101801.38;;;9.95;76.21
17615;BME280;8926;49.720;6.576;2023-02-12T11:47:04;101795.19;;;9.99;75.72
17615;BME280;8926;49.720;6.576;2023-02-12T11:49:40;101790.88;;;9.98;75.13
17615;BME280;8926;49.720;6.576;2023-02-12T11:52:18;101802.91;;;10.05;75.48
17615;BME280;8926;49.720;6.576;2023-02-12T11:54:46;101787.13;;;10.11;75.53
17615;BME280;8926;49.720;6.576;2023-02-12T11:57:38;101788.84;;;10.12;74.74
17615;BME280;8926;49.720;6.576;2023-02-12T12:03:26;101788.75;;;10.15;74.81
17615;BME280;8926;49.720;6.576;2023-02-12T12:06:00;101785.25;;;10.16;74.59
17615;BME280;8926;49.720;6.576;2023-02-12T12:08:41;101785.31;;;10.13;74.44
17615;BME280;8926;49.720;6.576;2023-02-12T12:11:18;101783.63;;;10.12;74.53
17615;BME280;8926;49.720;6.576;2023-02-12T12:13:51;101786.16;;;10.14;74.60
17615;BME280;8926;49.720;6.576;2023-02-12T12:16:24;101781.81;;;10.14;74.30
17615;BME280;8926;49.720;6.576;2023-02-12T12:19:16;101767.78;;;10.18;74.59
17615;BME280;8926;49.720;6.576;2023-02-12T12:22:22;101774.69;;;10.23;74.07
17615;BME280;8926;49.720;6.576;2023-02-12T12:27:32;101771.03;;;10.31;73.72
17615;BME280;8926;49.720;6.576;2023-02-12T12:33:12;101763.88;;;10.39;73.74
17615;BME280;8926;49.720;6.576;2023-02-12T12:38:52;101763.75;;;10.44;73.26
17615;BME280;8926;49.720;6.576;2023-02-12T12:42:06;101765.22;;;10.56;73.52
17615;BME280;8926;49.720;6.576;2023-02-12T12:44:45;101765.19;;;10.57;73.28
17615;BME280;8926;49.720;6.576;2023-02-12T12:52:56;101754.56;;;10.63;72.65
17615;BME280;8926;49.720;6.576;2023-02-12T12:55:51;101758.94;;;10.63;72.97
17615;BME280;8926;49.720;6.576;2023-02-12T12:58:29;101751.06;;;10.64;72.55
17615;BME280;8926;49.720;6.576;2023-02-12T13:11:51;101742.22;;;10.68;72.29
17615;BME280;8926;49.720;6.576;2023-02-12T13:17:41;101735.00;;;10.79;72.25
17615;BME280;8926;49.720;6.576;2023-02-12T13:20:21;101734.09;;;10.80;72.02
17615;BME280;8926;49.720;6.576;2023-02-12T13:22:56;101733.88;;;10.90;72.16
17615;BME280;8926;49.720;6.576;2023-02-12T13:27:55;101727.63;;;10.94;71.73
17615;BME280;8926;49.720;6.576;2023-02-12T13:30:45;101721.47;;;10.96;71.67
17615;BME280;8926;49.720;6.576;2023-02-12T13:33:24;101730.97;;;10.99;71.25
17615;BME280;8926;49.720;6.576;2023-02-12T13:35:55;101722.41;;;10.94;71.11
17615;BME280;8926;49.720;6.576;2023-02-12T13:38:31;101722.41;;;10.94;71.12
17615;BME280;8926;49.720;6.576;2023-02-12T13:41:02;101718.84;;;10.96;70.84
17615;BME280;8926;49.720;6.576;2023-02-12T13:46:37;101727.47;;;11.00;70.84
17615;BME280;8926;49.720;6.576;2023-02-12T13:49:23;101714.41;;;11.00;70.88
17615;BME280;8926;49.720;6.576;2023-02-12T13:52:01;101713.50;;;11.01;70.53
17615;BME280;8926;49.720;6.576;2023-02-12T13:54:39;101716.94;;;11.03;70.72
17615;BME280;8926;49.720;6.576;2023-02-12T13:57:13;101707.88;;;11.16;70.81
17615;BME280;8926;49.720;6.576;2023-02-12T13:59:41;101702.44;;;11.22;70.61
17615;BME280;8926;49.720;6.576;2023-02-12T14:07:17;101713.09;;;11.16;69.96
17615;BME280;8926;49.720;6.576;2023-02-12T14:09:58;101702.88;;;11.07;70.10
17615;BME280;8926;49.720;6.576;2023-02-12T14:15:27;101696.16;;;10.97;70.03
17615;BME280;8926;49.720;6.576;2023-02-12T14:18:03;101695.31;;;10.96;70.40
17615;BME280;8926;49.720;6.576;2023-02-12T14:20:30;101696.25;;;10.94;70.24
17615;BME280;8926;49.720;6.576;2023-02-12T14:28:22;101694.63;;;10.90;70.77
17615;BME280;8926;49.720;6.576;2023-02-12T14:33:43;101692.09;;;10.86;70.81
17615;BME280;8926;49.720;6.576;2023-02-12T14:41:36;101685.22;;;10.82;70.84
17615;BME280;8926;49.720;6.576;2023-02-12T14:47:04;101683.78;;;10.71;71.02
17615;BME280;8926;49.720;6.576;2023-02-12T14:49:47;101684.72;;;10.68;71.36
17615;BME280;8926;49.720;6.576;2023-02-12T14:52:19;101679.25;;;10.77;71.05
17615;BME280;8926;49.720;6.576;2023-02-12T14:54:52;101690.72;;;10.72;71.07
17615;BME280;8926;49.720;6.576;2023-02-12T14:57:29;101682.84;;;10.73;70.92
17615;BME280;8926;49.720;6.576;2023-02-12T14:59:59;101677.69;;;10.70;70.80
17615;BME280;8926;49.720;6.576;2023-02-12T15:02:33;101677.03;;;10.64;71.06
17615;BME280;8926;49.720;6.576;2023-02-12T15:05:13;101684.00;;;10.63;71.42
17615;BME280;8926;49.720;6.576;2023-02-12T15:07:44;101682.28;;;10.62;71.37
17615;BME280;8926;49.720;6.576;2023-02-12T15:10:18;101678.13;;;10.55;70.94
17615;BME280;8926;49.720;6.576;2023-02-12T15:13:00;101682.50;;;10.53;71.06
17615;BME280;8926;49.720;6.576;2023-02-12T15:15:38;101674.75;;;10.50;71.23
17615;BME280;8926;49.720;6.576;2023-02-12T15:18:16;101667.72;;;10.52;71.49
17615;BME280;8926;49.720;6.576;2023-02-12T15:20:53;101672.97;;;10.52;71.51
17615;BME280;8926;49.720;6.576;2023-02-12T15:23:39;101673.03;;;10.49;71.73
17615;BME280;8926;49.720;6.576;2023-02-12T15:26:09;101667.88;;;10.46;72.04
17615;BME280;8926;49.720;6.576;2023-02-12T15:28:36;101673.25;;;10.40;71.97
17615;BME280;8926;49.720;6.576;2023-02-12T15:31:04;101668.03;;;10.40;71.73
17615;BME280;8926;49.720;6.576;2023-02-12T15:33:36;101672.59;;;10.32;71.75